createdAt,value
2023-03-25T00:02:08.992Z,10.30
2023-03-25T00:04:41.239Z,10.30
2023-03-25T00:07:13.394Z,10.30
2023-03-25T00:09:45.545Z,10.30
2023-03-25T00:12:20.230Z,10.30
2023-03-25T00:14:55.398Z,10.30
2023-03-25T00:17:29.303Z,10.20
2023-03-25T00:20:02.632Z,10.20
2023-03-25T00:22:36.715Z,10.20
2023-03-25T00:25:10.362Z,10.20
2023-03-25T00:27:46.680Z,10.20
2023-03-25T00:30:21.253Z,10.20
2023-03-25T00:32:53.504Z,10.20
2023-03-25T00:35:26.216Z,10.20
2023-03-25T00:38:00.526Z,10.20
2023-03-25T00:40:36.083Z,10.20
2023-03-25T00:43:11.395Z,10.20
2023-03-25T00:45:43.481Z,10.10
2023-03-25T00:48:15.894Z,10.10
2023-03-25T00:50:49.046Z,10.20
2023-03-25T00:53:21.261Z,10.10
2023-03-25T00:55:58.456Z,10.10
2023-03-25T00:58:33.296Z,10.10
2023-03-25T01:01:10.961Z,10.10
2023-03-25T01:03:46.413Z,10.10
2023-03-25T01:06:21.746Z,10.10
2023-03-25T01:08:53.888Z,10.10
2023-03-25T01:11:28.136Z,10.00
2023-03-25T01:14:04.516Z,10.10
2023-03-25T01:16:36.648Z,10.00
2023-03-25T01:19:08.864Z,10.10
2023-03-25T01:21:41.935Z,10.00
2023-03-25T01:24:15.651Z,10.00
2023-03-25T01:26:47.790Z,10.00
2023-03-25T01:29:22.700Z,10.00
2023-03-25T01:31:54.878Z,10.00
2023-03-25T01:34:27.113Z,10.00
2023-03-25T01:36:59.623Z,10.00
2023-03-25T01:39:31.810Z,10.00
2023-03-25T01:42:04.139Z,10.00
2023-03-25T01:45:06.711Z,10.00
2023-03-25T01:47:42.131Z,10.10
2023-03-25T01:50:15.263Z,10.10
2023-03-25T01:52:51.278Z,10.10
2023-03-25T01:55:24.602Z,10.20
2023-03-25T01:57:59.806Z,10.20
2023-03-25T02:00:32.754Z,10.20
2023-03-25T02:03:11.512Z,10.30
2023-03-25T02:05:51.241Z,10.30
2023-03-25T02:08:25.485Z,10.30
2023-03-25T02:10:57.633Z,10.30
2023-03-25T02:13:30.098Z,10.30
2023-03-25T02:16:20.532Z,10.30
2023-03-25T02:19:01.483Z,10.30
2023-03-25T02:22:00.121Z,10.20
2023-03-25T02:25:02.243Z,10.00
2023-03-25T02:27:50.911Z,9.90
2023-03-25T02:30:47.499Z,9.70
2023-03-25T02:33:39.002Z,9.60
2023-03-25T02:36:39.921Z,9.40
2023-03-25T02:39:19.623Z,9.30
2023-03-25T02:41:58.874Z,9.20
2023-03-25T02:44:36.395Z,9.20
2023-03-25T02:47:13.451Z,9.10
2023-03-25T02:49:48.778Z,9.10
2023-03-25T02:52:25.913Z,9.00
2023-03-25T02:55:05.141Z,9.00
2023-03-25T02:57:41.039Z,9.00
2023-03-25T03:00:16.292Z,9.00
2023-03-25T03:02:53.550Z,9.00
2023-03-25T03:05:27.890Z,8.90
2023-03-25T03:08:14.966Z,8.90
2023-03-25T03:10:58.084Z,8.90
2023-03-25T03:13:43.664Z,8.90
2023-03-25T03:16:24.971Z,8.90
2023-03-25T03:19:06.181Z,8.80
2023-03-25T03:21:44.770Z,8.80
2023-03-25T03:24:22.332Z,8.80
2023-03-25T03:26:59.936Z,8.80
2023-03-25T03:29:36.863Z,8.80
2023-03-25T03:32:13.472Z,8.80
2023-03-25T03:34:49.145Z,8.80
2023-03-25T03:37:27.445Z,8.80
2023-03-25T03:39:59.893Z,8.80
2023-03-25T03:42:37.892Z,8.80
2023-03-25T03:45:13.301Z,8.80
2023-03-25T03:47:49.797Z,8.80
2023-03-25T03:50:26.652Z,8.80
2023-03-25T03:53:03.728Z,8.80
2023-03-25T03:55:38.334Z,8.80
2023-03-25T03:58:22.524Z,8.80
2023-03-25T04:01:00.015Z,8.90
2023-03-25T04:03:39.110Z,8.90
2023-03-25T04:06:21.236Z,8.90
2023-03-25T04:09:00.627Z,8.90
2023-03-25T04:11:40.352Z,8.90
2023-03-25T04:14:15.548Z,9.00
2023-03-25T04:16:47.807Z,9.00
2023-03-25T04:19:20.336Z,9.00
2023-03-25T04:21:54.009Z,9.00
2023-03-25T04:24:26.870Z,9.10
2023-03-25T04:27:03.609Z,9.10
2023-03-25T04:29:40.517Z,9.10
2023-03-25T04:32:13.046Z,9.20
2023-03-25T04:34:47.121Z,9.20
2023-03-25T04:37:19.201Z,9.20
2023-03-25T04:39:51.392Z,9.20
2023-03-25T04:42:25.948Z,9.20
2023-03-25T04:45:00.849Z,9.20
2023-03-25T04:47:33.195Z,9.30
2023-03-25T04:50:07.065Z,9.30
2023-03-25T04:52:39.386Z,9.30
2023-03-25T04:55:13.065Z,9.30
2023-03-25T04:57:46.374Z,9.40
2023-03-25T05:00:24.463Z,9.40
2023-03-25T05:02:56.904Z,9.40
2023-03-25T05:05:29.008Z,9.40
2023-03-25T05:08:01.709Z,9.40
2023-03-25T05:10:36.293Z,9.50
2023-03-25T05:13:09.150Z,9.50
2023-03-25T05:15:43.848Z,9.50
2023-03-25T05:18:16.689Z,9.50
2023-03-25T05:20:51.218Z,9.50
2023-03-25T05:23:23.855Z,9.50
2023-03-25T05:25:57.077Z,9.50
2023-03-25T05:28:29.644Z,9.50
2023-03-25T05:31:08.505Z,9.50
2023-03-25T05:33:43.588Z,9.60
2023-03-25T05:36:18.314Z,9.60
2023-03-25T05:38:50.601Z,9.60
2023-03-25T05:41:32.562Z,9.60
2023-03-25T05:44:05.406Z,9.60
2023-03-25T05:46:40.127Z,9.60
2023-03-25T05:49:12.230Z,9.60
2023-03-25T05:51:45.338Z,9.60
2023-03-25T05:54:17.491Z,9.70
2023-03-25T05:56:49.620Z,9.70
2023-03-25T05:59:21.831Z,9.70
2023-03-25T06:01:56.647Z,9.70
2023-03-25T06:04:28.741Z,9.70
2023-03-25T06:07:01.722Z,9.70
2023-03-25T06:09:35.228Z,9.70
2023-03-25T06:12:07.977Z,9.80
2023-03-25T06:14:43.072Z,9.70
2023-03-25T06:17:22.279Z,9.80
2023-03-25T06:19:54.615Z,9.80
2023-03-25T06:22:26.838Z,9.80
2023-03-25T06:24:58.945Z,9.80
2023-03-25T06:27:34.339Z,9.80
2023-03-25T06:30:08.798Z,9.80
2023-03-25T06:32:43.574Z,9.90
2023-03-25T06:35:19.808Z,9.90
2023-03-25T06:37:52.293Z,9.90
2023-03-25T06:40:24.453Z,9.90
2023-03-25T06:42:56.524Z,10.00
2023-03-25T06:45:28.677Z,10.00
2023-03-25T06:48:03.476Z,10.00
2023-03-25T06:50:35.859Z,10.00
2023-03-25T06:53:08.074Z,10.00
2023-03-25T06:55:41.442Z,10.00
2023-03-25T06:58:13.722Z,10.00
2023-03-25T07:00:47.052Z,10.00
2023-03-25T07:03:21.954Z,10.00
2023-03-25T07:05:54.057Z,10.00
2023-03-25T07:08:26.287Z,10.00
2023-03-25T07:11:01.318Z,10.00
2023-03-25T07:13:33.811Z,9.90
2023-03-25T07:16:07.480Z,9.80
2023-03-25T07:18:42.151Z,9.70
2023-03-25T07:21:14.268Z,9.70
2023-03-25T07:23:46.388Z,9.60
2023-03-25T07:26:18.909Z,9.60
2023-03-25T07:28:51.019Z,9.60
2023-03-25T07:31:23.194Z,9.60
2023-03-25T07:34:00.000Z,9.60
2023-03-25T07:36:32.080Z,9.70
2023-03-25T07:39:04.394Z,9.70
2023-03-25T07:41:36.487Z,9.80
2023-03-25T07:44:08.563Z,9.90
2023-03-25T07:46:40.971Z,9.90
2023-03-25T07:49:16.315Z,9.90
2023-03-25T07:51:48.436Z,10.00
2023-03-25T07:54:22.515Z,10.00
2023-03-25T07:56:54.715Z,10.10
2023-03-25T07:59:29.291Z,10.20
2023-03-25T08:02:01.809Z,10.30
2023-03-25T08:04:37.389Z,10.30
2023-03-25T08:07:09.548Z,10.40
2023-03-25T08:09:42.378Z,10.50
2023-03-25T08:12:14.513Z,10.50
2023-03-25T08:14:46.633Z,10.60
2023-03-25T08:17:18.780Z,10.60
2023-03-25T08:19:53.513Z,10.70
2023-03-25T08:22:25.664Z,10.60
2023-03-25T08:24:57.817Z,10.70
2023-03-25T08:27:30.078Z,10.70
2023-03-25T08:30:02.226Z,10.70
2023-03-25T08:32:36.601Z,10.70
2023-03-25T08:35:11.563Z,10.70
2023-03-25T08:37:43.662Z,10.70
2023-03-25T08:40:17.397Z,10.70
2023-03-25T08:42:49.471Z,10.80
2023-03-25T08:45:21.539Z,10.80
2023-03-25T08:47:53.830Z,10.80
2023-03-25T08:50:29.036Z,10.90
2023-03-25T08:53:01.173Z,10.90
2023-03-25T08:55:33.336Z,10.90
2023-03-25T08:58:08.157Z,10.90
2023-03-25T09:00:40.268Z,10.90
2023-03-25T09:03:12.348Z,10.80
2023-03-25T09:05:47.028Z,10.80
2023-03-25T09:08:19.359Z,10.70
2023-03-25T09:10:51.537Z,10.60
2023-03-25T09:13:23.616Z,10.50
2023-03-25T09:15:57.415Z,10.40
2023-03-25T09:18:32.145Z,10.30
2023-03-25T09:21:07.404Z,10.10
2023-03-25T09:23:39.457Z,10.00
2023-03-25T09:26:12.252Z,9.90
2023-03-25T09:28:44.602Z,9.80
2023-03-25T09:31:16.834Z,9.80
2023-03-25T09:33:49.026Z,9.70
2023-03-25T09:36:23.713Z,9.70
2023-03-25T09:38:55.815Z,9.60
2023-03-25T09:41:41.509Z,9.60
2023-03-25T09:44:19.172Z,9.60
2023-03-25T09:46:51.463Z,9.60
2023-03-25T09:49:28.112Z,9.60
2023-03-25T09:52:03.109Z,9.60
2023-03-25T09:54:38.893Z,9.70
2023-03-25T09:57:18.130Z,9.80
2023-03-25T09:59:51.986Z,9.90
2023-03-25T10:02:33.709Z,9.90
2023-03-25T10:05:20.483Z,10.00
2023-03-25T10:08:15.756Z,10.10
2023-03-25T10:10:53.427Z,10.10
2023-03-25T10:13:32.401Z,10.20
2023-03-25T10:16:12.648Z,10.30
2023-03-25T10:19:00.161Z,10.30
2023-03-25T10:21:40.138Z,10.40
2023-03-25T10:24:20.341Z,10.40
2023-03-25T10:26:57.293Z,10.40
2023-03-25T10:29:34.480Z,10.50
2023-03-25T10:32:13.594Z,10.40
2023-03-25T10:34:50.081Z,10.40
2023-03-25T10:37:29.070Z,10.50
2023-03-25T10:40:16.875Z,10.60
2023-03-25T10:42:58.719Z,10.70
2023-03-25T10:45:32.589Z,10.80
2023-03-25T10:48:11.572Z,10.90
2023-03-25T10:50:44.140Z,11.00
2023-03-25T10:53:22.915Z,11.10
2023-03-25T10:56:02.622Z,11.20
2023-03-25T10:58:37.388Z,11.30
2023-03-25T11:01:12.990Z,11.30
2023-03-25T11:03:49.866Z,11.40
2023-03-25T11:06:29.856Z,11.40
2023-03-25T11:09:18.518Z,11.30
2023-03-25T11:11:53.892Z,11.30
2023-03-25T11:14:28.145Z,11.30
2023-03-25T11:17:04.107Z,11.20
2023-03-25T11:19:40.901Z,11.10
2023-03-25T11:22:18.577Z,11.00
2023-03-25T11:24:57.908Z,10.90
2023-03-25T11:27:41.556Z,10.70
2023-03-25T11:30:18.268Z,10.50
2023-03-25T11:32:59.363Z,10.40
2023-03-25T11:35:34.844Z,10.30
2023-03-25T11:38:15.340Z,10.20
2023-03-25T11:40:53.233Z,10.20
2023-03-25T11:43:31.050Z,10.30
2023-03-25T11:46:09.113Z,10.30
2023-03-25T11:48:43.072Z,10.40
2023-03-25T11:51:19.330Z,10.50
2023-03-25T11:53:56.339Z,10.60
2023-03-25T11:56:33.082Z,10.70
2023-03-25T11:59:09.991Z,10.90
2023-03-25T12:01:45.675Z,11.00
2023-03-25T12:04:21.154Z,11.20
2023-03-25T12:06:58.939Z,11.30
2023-03-25T12:09:31.859Z,11.50
2023-03-25T12:12:26.820Z,11.80
2023-03-25T12:15:12.979Z,12.00
2023-03-25T12:17:56.652Z,12.20
2023-03-25T12:20:34.355Z,12.40
2023-03-25T12:23:20.037Z,12.70
2023-03-25T12:26:00.961Z,12.90
2023-03-25T12:28:49.170Z,13.10
2023-03-25T12:31:36.958Z,13.00
2023-03-25T12:34:18.973Z,12.90
2023-03-25T12:37:01.832Z,12.70
2023-03-25T12:39:49.328Z,12.40
2023-03-25T12:42:41.401Z,12.10
2023-03-25T12:45:24.452Z,11.80
2023-03-25T12:48:07.463Z,11.90
2023-03-25T12:50:50.277Z,12.20
2023-03-25T12:53:39.997Z,12.60
2023-03-25T12:56:35.026Z,13.10
2023-03-25T12:59:28.052Z,13.50
2023-03-25T13:02:13.014Z,13.80
2023-03-25T13:07:30.441Z,14.40
2023-03-25T13:10:08.894Z,14.30
2023-03-25T13:46:41.483Z,14.40
2023-03-25T13:49:18.970Z,14.20
2023-03-25T13:51:54.095Z,14.60
2023-03-25T13:54:33.431Z,14.60
2023-03-25T13:57:24.975Z,14.70
2023-03-25T14:00:16.859Z,14.80
2023-03-25T14:03:24.831Z,15.00
2023-03-25T14:06:38.628Z,15.20
2023-03-25T14:09:40.149Z,15.50
2023-03-25T14:12:16.089Z,15.80
2023-03-25T14:14:55.274Z,15.80
2023-03-25T14:17:30.195Z,15.90
2023-03-25T14:20:08.457Z,15.70
2023-03-25T14:22:43.748Z,15.80
2023-03-25T14:25:29.431Z,16.00
2023-03-25T14:28:04.694Z,15.90
2023-03-25T14:30:37.325Z,15.80
2023-03-25T14:33:11.044Z,15.80
2023-03-25T14:35:52.244Z,15.60
2023-03-25T14:38:56.989Z,15.30
2023-03-25T14:41:58.393Z,15.00
2023-03-25T14:44:33.210Z,14.60
2023-03-25T14:47:27.989Z,14.40
2023-03-25T14:50:27.922Z,14.40
2023-03-25T14:53:03.354Z,14.50
2023-03-25T14:55:41.434Z,14.70
2023-03-25T14:58:21.213Z,14.90
2023-03-25T15:00:55.995Z,15.10
2023-03-25T15:03:34.004Z,15.20
2023-03-25T15:06:09.853Z,15.40
2023-03-25T15:08:50.434Z,15.40
2023-03-25T15:11:28.608Z,15.40
2023-03-25T15:14:07.069Z,15.40
2023-03-25T15:16:56.982Z,15.50
2023-03-25T15:19:29.333Z,15.60
2023-03-25T15:22:20.441Z,15.60
2023-03-25T15:24:59.124Z,15.70
2023-03-25T15:27:48.668Z,15.70
2023-03-25T15:30:56.972Z,15.70
2023-03-25T15:33:46.234Z,15.70
2023-03-25T15:36:40.016Z,15.70
2023-03-25T15:39:30.840Z,15.70
2023-03-25T15:42:26.581Z,15.70
2023-03-25T15:45:22.202Z,15.70
2023-03-25T15:48:27.545Z,15.70
2023-03-25T15:51:19.236Z,15.60
2023-03-25T15:54:13.229Z,15.50
2023-03-25T15:56:47.391Z,15.40
2023-03-25T15:59:30.739Z,15.40
2023-03-25T16:02:04.687Z,15.30
2023-03-25T16:04:42.590Z,15.20
2023-03-25T16:07:17.809Z,15.20
2023-03-25T16:09:50.590Z,15.20
2023-03-25T16:12:24.255Z,15.10
2023-03-25T16:14:56.343Z,15.10
2023-03-25T16:17:32.928Z,15.10
2023-03-25T16:20:15.463Z,15.00
2023-03-25T16:22:50.665Z,15.00
2023-03-25T16:25:27.228Z,14.90
2023-03-25T16:28:02.480Z,14.90
2023-03-25T16:30:37.401Z,14.80
2023-03-25T16:33:16.151Z,14.80
2023-03-25T16:35:56.739Z,14.60
2023-03-25T16:38:30.645Z,14.60
2023-03-25T16:41:04.546Z,14.40
2023-03-25T16:43:36.927Z,14.40
2023-03-25T16:46:11.253Z,14.20
2023-03-25T16:48:49.560Z,14.20
2023-03-25T16:51:29.245Z,14.10
2023-03-25T16:54:07.656Z,14.00
2023-03-25T16:56:40.500Z,13.90
2023-03-25T16:59:19.022Z,13.80
2023-03-25T17:01:53.922Z,13.70
2023-03-25T17:04:27.656Z,13.70
2023-03-25T17:07:09.582Z,13.60
2023-03-25T17:09:44.291Z,13.50
2023-03-25T17:12:19.151Z,13.50
2023-03-25T17:14:56.143Z,13.40
2023-03-25T17:17:36.032Z,13.40
2023-03-25T17:20:18.088Z,13.30
2023-03-25T17:23:08.152Z,13.30
2023-03-25T17:25:52.091Z,13.20
2023-03-25T17:28:28.846Z,13.20
2023-03-25T17:31:16.551Z,13.10
2023-03-25T17:33:50.576Z,13.10
2023-03-25T17:36:23.433Z,13.20
2023-03-25T17:38:58.844Z,13.10
2023-03-25T17:41:36.841Z,13.10
2023-03-25T17:44:14.649Z,13.10
2023-03-25T17:46:47.375Z,13.10
2023-03-25T17:49:20.527Z,13.10
2023-03-25T17:51:52.638Z,13.10
2023-03-25T17:54:27.504Z,13.00
2023-03-25T17:56:59.934Z,13.00
2023-03-25T17:59:32.061Z,13.00
2023-03-25T18:02:10.956Z,13.00
2023-03-25T18:04:43.349Z,13.00
2023-03-25T18:07:16.281Z,13.00
2023-03-25T18:09:50.948Z,12.90
2023-03-25T18:12:23.166Z,12.90
2023-03-25T18:14:55.400Z,13.00
2023-03-25T18:17:27.822Z,13.20
2023-03-25T18:20:00.129Z,13.50
2023-03-25T18:22:32.320Z,13.80
2023-03-25T18:25:07.707Z,14.10
2023-03-25T18:27:44.243Z,14.30
2023-03-25T18:30:20.359Z,14.50
2023-03-25T18:32:52.668Z,14.70
2023-03-25T18:35:25.748Z,14.80
2023-03-25T18:37:58.789Z,15.00
2023-03-25T18:40:35.868Z,15.10
2023-03-25T18:43:07.972Z,15.20
2023-03-25T18:45:40.272Z,15.30
2023-03-25T18:48:13.148Z,15.30
2023-03-25T18:50:52.555Z,15.30
2023-03-25T18:53:27.476Z,15.20
2023-03-25T18:56:02.387Z,14.90
2023-03-25T18:58:36.107Z,14.70
2023-03-25T19:01:10.162Z,14.50
2023-03-25T19:03:42.440Z,14.30
2023-03-25T19:06:15.267Z,14.20
2023-03-25T19:08:47.811Z,14.00
2023-03-25T19:11:22.674Z,13.90
2023-03-25T19:13:54.824Z,15.20
2023-03-25T19:16:27.073Z,13.60
2023-03-25T19:19:00.446Z,13.60
2023-03-25T19:21:32.803Z,13.60
2023-03-25T19:24:05.780Z,13.60
2023-03-25T19:26:40.667Z,13.60
2023-03-25T19:29:12.713Z,13.70
2023-03-25T19:31:44.866Z,13.70
2023-03-25T19:34:18.082Z,13.80
2023-03-25T19:36:50.337Z,13.80
2023-03-25T19:39:23.149Z,13.70
2023-03-25T19:41:57.898Z,13.70
2023-03-25T19:44:30.050Z,13.60
2023-03-25T19:47:02.205Z,13.40
2023-03-25T19:49:39.824Z,13.40
2023-03-25T19:52:12.595Z,13.40
2023-03-25T19:54:45.093Z,13.40
2023-03-25T19:57:20.393Z,13.40
2023-03-25T19:59:52.575Z,13.40
2023-03-25T20:02:24.875Z,13.40
2023-03-25T20:04:57.218Z,13.40
2023-03-25T20:10:53.625Z,13.40
2023-03-25T20:13:28.429Z,13.40
2023-03-25T20:16:13.258Z,13.30
2023-03-25T20:22:42.300Z,13.20
2023-03-25T20:25:15.578Z,13.20
2023-03-25T20:27:47.849Z,13.20
2023-03-25T20:30:23.093Z,13.10
2023-03-25T20:32:56.201Z,13.10
2023-03-25T20:35:29.486Z,12.90
2023-03-25T20:38:02.152Z,12.90
2023-03-25T20:40:44.120Z,12.80
2023-03-25T20:43:17.185Z,12.70
2023-03-25T20:45:54.389Z,12.50
2023-03-25T20:48:26.858Z,12.50
2023-03-25T20:51:00.158Z,12.40
2023-03-25T20:53:33.263Z,12.40
2023-03-25T20:56:05.847Z,12.40
2023-03-25T20:58:37.948Z,12.30
2023-03-25T21:01:15.614Z,12.40
2023-03-25T21:03:49.104Z,12.30
2023-03-25T21:06:25.493Z,12.40
2023-03-25T21:09:05.276Z,12.30
2023-03-25T21:11:39.670Z,12.30
2023-03-25T21:14:12.699Z,12.40
2023-03-25T21:16:47.868Z,12.30
2023-03-25T21:19:20.679Z,12.20
2023-03-25T21:21:52.830Z,12.20
2023-03-25T21:24:24.898Z,12.10
2023-03-25T21:26:56.949Z,12.00
2023-03-25T21:29:29.491Z,12.00
2023-03-25T21:32:04.776Z,12.00
2023-03-25T21:34:36.919Z,12.00
2023-03-25T21:37:09.401Z,12.00
2023-03-25T21:39:41.492Z,12.00
2023-03-25T21:42:13.613Z,12.00
2023-03-25T21:44:45.669Z,12.00
2023-03-25T21:58:19.809Z,12.00
2023-03-25T22:01:07.317Z,12.00
2023-03-25T22:03:45.480Z,12.00
2023-03-25T22:06:19.497Z,12.00
2023-03-25T22:08:51.851Z,12.00
2023-03-25T22:11:26.083Z,12.00
2023-03-25T22:13:58.302Z,12.00
2023-03-25T22:16:33.357Z,12.00
2023-03-25T22:19:06.390Z,12.00
2023-03-25T22:21:38.731Z,12.00
2023-03-25T22:24:10.797Z,11.90
2023-03-25T22:26:43.324Z,12.00
2023-03-25T22:29:15.700Z,11.90
2023-03-25T22:31:51.067Z,11.90
2023-03-25T22:34:23.290Z,11.90
2023-03-25T22:36:55.522Z,11.90
2023-03-25T22:39:28.499Z,11.90
2023-03-25T22:42:00.700Z,11.90
2023-03-25T22:44:33.010Z,11.80
2023-03-25T22:47:07.724Z,11.60
2023-03-25T22:49:39.783Z,11.40
2023-03-25T22:52:12.663Z,11.20
2023-03-25T22:54:44.761Z,10.90
2023-03-25T22:57:18.365Z,10.80
2023-03-25T22:59:51.483Z,10.50
2023-03-25T23:02:26.947Z,10.40
2023-03-25T23:04:59.413Z,10.30
2023-03-25T23:07:31.524Z,10.10
2023-03-25T23:10:05.828Z,10.00
2023-03-25T23:12:37.892Z,9.90
2023-03-25T23:15:10.943Z,9.80
2023-03-25T23:17:45.599Z,9.70
2023-03-25T23:20:17.980Z,9.70
2023-03-25T23:22:50.026Z,9.60
2023-03-25T23:25:22.093Z,9.50
2023-03-25T23:27:54.253Z,9.40
2023-03-25T23:30:26.320Z,9.30
2023-03-25T23:33:00.946Z,9.20
2023-03-25T23:35:33.050Z,9.20
2023-03-25T23:38:05.164Z,9.20
2023-03-25T23:40:37.230Z,9.20
2023-03-25T23:43:09.322Z,9.10
2023-03-25T23:45:42.150Z,9.10
2023-03-25T23:48:16.815Z,9.10
2023-03-25T23:50:49.428Z,9.10
2023-03-25T23:53:22.059Z,9.00
2023-03-25T23:55:55.823Z,9.00
2023-03-25T23:58:27.997Z,9.10
